Time;durP1;ratioP1;P1;durP2;ratioP2;P2;SDS_P1;SDS_P2;PMS_P1;PMS_P2;Temp;Humidity;BMP_temperature;BMP_pressure;BME280_temperature;BME280_humidity;BME280_pressure;Samples;Min_cycle;Max_cycle;Signal;HPM_P1;HPM_P2
2023/09/25 00:00:46;;;;;;;5.03;2.25;;;;;;;10.30;100.00;93038.34;5016423;28;20470;-79
2023/09/25 00:03:12;;;;;;;7.82;2.10;;;;;;;10.26;100.00;93042.53;5032965;28;20038;-80
2023/09/25 00:05:39;;;;;;;6.93;2.10;;;;;;;10.27;100.00;93051.91;5025864;28;20075;-81
2023/09/25 00:08:05;;;;;;;5.63;2.20;;;;;;;10.24;100.00;93050.63;5027529;28;20041;-80
2023/09/25 00:10:31;;;;;;;5.75;2.00;;;;;;;10.20;100.00;93053.03;5029117;28;20037;-79
2023/09/25 00:13:01;;;;;;;5.88;2.20;;;;;;;10.18;100.00;93049.13;5021594;28;20103;-79
2023/09/25 00:15:26;;;;;;;6.88;2.22;;;;;;;10.13;100.00;93042.06;5029409;28;20025;-80
2023/09/25 00:17:53;;;;;;;4.35;1.92;;;;;;;10.14;100.00;93050.69;5021966;28;20064;-80
2023/09/25 00:20:24;;;;;;;7.13;2.40;;;;;;;10.12;100.00;93056.19;5023813;28;20033;-80
2023/09/25 00:22:51;;;;;;;6.78;1.83;;;;;;;10.12;100.00;93048.34;5023000;28;20416;-80
2023/09/25 00:25:20;;;;;;;5.35;2.33;;;;;;;10.06;100.00;93049.41;5025856;28;20034;-80
2023/09/25 00:27:46;;;;;;;5.28;2.40;;;;;;;10.06;100.00;93051.25;5029184;28;20037;-80
2023/09/25 00:30:13;;;;;;;7.45;2.45;;;;;;;10.01;100.00;93052.06;5023611;28;20454;-78
2023/09/25 00:32:39;;;;;;;6.53;2.28;;;;;;;9.95;100.00;93050.50;5025588;28;20041;-80
2023/09/25 00:35:10;;;;;;;6.60;2.08;;;;;;;9.92;100.00;93054.44;5024040;28;20050;-80
2023/09/25 00:37:39;;;;;;;8.30;2.30;;;;;;;9.91;100.00;93052.13;5015361;28;20034;-80
2023/09/25 00:40:13;;;;;;;5.78;2.33;;;;;;;9.86;100.00;93036.41;5020822;28;20038;-79
2023/09/25 00:42:45;;;;;;;5.00;2.00;;;;;;;9.89;100.00;93048.97;5018158;28;20033;-80
2023/09/25 00:45:11;;;;;;;6.43;1.80;;;;;;;9.85;100.00;93053.94;5018953;28;20128;-80
2023/09/25 00:47:41;;;;;;;5.45;2.15;;;;;;;9.80;100.00;93062.59;5019303;28;20068;-79
2023/09/25 00:50:09;;;;;;;4.65;2.10;;;;;;;9.80;100.00;93062.59;5016635;28;20038;-79
2023/09/25 00:52:36;;;;;;;7.03;2.30;;;;;;;9.79;100.00;93062.84;5016723;28;20025;-79
2023/09/25 00:55:04;;;;;;;6.90;2.25;;;;;;;9.76;100.00;93061.56;5018872;28;20030;-80
2023/09/25 00:57:31;;;;;;;5.50;2.08;;;;;;;9.76;100.00;93066.78;5017488;28;20038;-79
2023/09/25 00:59:56;;;;;;;5.53;2.08;;;;;;;9.75;100.00;93062.63;5020732;28;20042;-80
2023/09/25 01:02:22;;;;;;;5.10;2.13;;;;;;;9.73;100.00;93067.31;5019870;28;20058;-79
2023/09/25 01:04:48;;;;;;;5.43;2.20;;;;;;;9.69;100.00;93061.06;5015855;28;20046;-80
2023/09/25 01:07:18;;;;;;;7.10;2.47;;;;;;;9.68;100.00;93064.72;5022595;28;20393;-79
2023/09/25 01:10:23;;;;;;;5.47;2.10;;;;;;;9.69;100.00;93066.28;5027506;28;20043;-80
2023/09/25 01:12:52;;;;;;;4.63;1.80;;;;;;;9.65;100.00;93060.03;4996481;28;20101;-80
2023/09/25 01:15:19;;;;;;;4.97;2.00;;;;;;;9.61;100.00;93060.81;5026874;28;20017;-79
2023/09/25 01:17:44;;;;;;;6.18;2.38;;;;;;;9.60;100.00;93062.66;5023915;28;20029;-80
2023/09/25 01:20:13;;;;;;;5.85;2.13;;;;;;;9.55;100.00;93066.06;5022378;28;20124;-78
2023/09/25 01:22:40;;;;;;;5.22;2.10;;;;;;;9.54;100.00;93063.72;4998395;28;20100;-79
2023/09/25 01:25:06;;;;;;;5.85;1.98;;;;;;;9.53;100.00;93056.94;5020135;28;20029;-79
2023/09/25 01:27:32;;;;;;;5.50;2.00;;;;;;;9.51;100.00;93064.25;5020618;28;20120;-80
2023/09/25 01:29:58;;;;;;;6.10;2.17;;;;;;;9.49;100.00;93056.66;5018549;28;20050;-79
2023/09/25 01:32:24;;;;;;;4.97;1.92;;;;;;;9.50;100.00;93057.44;4997888;28;20066;-79
2023/09/25 01:34:50;;;;;;;6.57;2.20;;;;;;;9.44;100.00;93048.84;5015942;28;20053;-79
2023/09/25 01:37:15;;;;;;;5.03;2.10;;;;;;;9.46;100.00;93053.81;5004640;28;20045;-80
2023/09/25 01:39:42;;;;;;;4.40;2.10;;;;;;;9.45;100.00;93073.13;5014185;28;20407;-79
2023/09/25 01:42:07;;;;;;;6.30;2.42;;;;;;;9.43;100.00;93073.38;5027171;28;20516;-79
2023/09/25 01:44:33;;;;;;;5.00;2.03;;;;;;;9.41;100.00;93074.72;5019799;28;20025;-80
2023/09/25 01:46:59;;;;;;;5.25;1.80;;;;;;;9.37;100.00;93075.25;5025066;28;20488;-80
2023/09/25 01:49:24;;;;;;;4.38;1.95;;;;;;;9.37;100.00;93071.84;5019682;28;20033;-79
2023/09/25 01:51:50;;;;;;;4.40;2.05;;;;;;;9.36;100.00;93072.88;5021787;28;20038;-79
2023/09/25 01:54:16;;;;;;;6.30;2.17;;;;;;;9.35;100.00;93073.94;5021091;28;20484;-80
2023/09/25 01:56:41;;;;;;;5.82;1.90;;;;;;;9.30;100.00;93072.13;5022385;28;20042;-79
2023/09/25 01:59:07;;;;;;;5.90;2.20;;;;;;;9.31;100.00;93075.50;5007647;28;20516;-79
2023/09/25 02:01:32;;;;;;;5.20;2.10;;;;;;;9.30;100.00;93074.72;5004586;28;20042;-79
2023/09/25 02:03:58;;;;;;;5.15;2.10;;;;;;;9.29;100.00;93082.81;5024658;28;20481;-80
2023/09/25 02:06:24;;;;;;;5.50;2.13;;;;;;;9.25;100.00;93084.38;5014443;28;20041;-80
2023/09/25 02:08:49;;;;;;;8.95;2.20;;;;;;;9.22;100.00;93088.31;5020775;28;20034;-79
2023/09/25 02:11:15;;;;;;;5.80;2.03;;;;;;;9.15;100.00;93083.34;5022553;28;20113;-79
2023/09/25 02:13:41;;;;;;;5.80;1.77;;;;;;;9.19;100.00;93086.25;5029065;28;20032;-79
2023/09/25 02:16:07;;;;;;;7.05;2.40;;;;;;;9.17;100.00;93093.56;5028071;28;20033;-80
2023/09/25 02:18:32;;;;;;;5.97;2.22;;;;;;;9.15;100.00;93099.03;4996404;28;20111;-80
2023/09/25 02:20:58;;;;;;;4.88;1.80;;;;;;;9.15;100.00;93100.88;4996448;28;20042;-79
2023/09/25 02:23:24;;;;;;;4.97;2.03;;;;;;;9.15;100.00;93095.63;5014150;28;20448;-79
2023/09/25 02:25:50;;;;;;;7.20;2.00;;;;;;;9.11;100.00;93091.97;5014567;28;20037;-79
2023/09/25 02:28:18;;;;;;;5.45;2.00;;;;;;;9.08;100.00;93090.69;5021366;28;20034;-80
2023/09/25 02:30:45;;;;;;;9.77;2.30;;;;;;;9.03;100.00;93087.25;5021393;28;20033;-79
2023/09/25 02:33:10;;;;;;;7.35;2.13;;;;;;;9.02;100.00;93091.72;5027230;28;20033;-80
2023/09/25 02:35:37;;;;;;;6.50;2.00;;;;;;;9.03;100.00;93089.88;4996757;28;20406;-77
2023/09/25 02:38:02;;;;;;;6.13;2.10;;;;;;;8.99;100.00;93073.19;5013980;28;20049;-80
2023/09/25 02:40:28;;;;;;;5.10;2.05;;;;;;;9.04;100.00;93073.97;5014530;28;20520;-80
2023/09/25 02:42:54;;;;;;;4.70;1.90;;;;;;;9.06;100.00;93071.88;5003488;28;20053;-80
2023/09/25 02:45:20;;;;;;;5.90;2.08;;;;;;;9.09;100.00;93070.56;5014932;28;20038;-80
2023/09/25 02:47:45;;;;;;;4.88;2.03;;;;;;;9.07;100.00;93064.81;5013495;28;20551;-79
2023/09/25 02:50:12;;;;;;;4.30;1.83;;;;;;;9.09;100.00;93068.72;5013199;28;20034;-80
2023/09/25 02:52:37;;;;;;;6.40;1.80;;;;;;;9.08;100.00;93077.63;5022078;28;20080;-79
2023/09/25 02:55:03;;;;;;;5.15;2.17;;;;;;;9.07;100.00;93083.09;5019788;28;20068;-80
2023/09/25 02:57:29;;;;;;;8.63;1.98;;;;;;;9.11;100.00;93086.75;5019678;28;20032;-79
2023/09/25 02:59:55;;;;;;;4.88;2.00;;;;;;;9.13;100.00;93089.88;5013511;28;20042;-80
2023/09/25 03:02:20;;;;;;;6.60;2.15;;;;;;;9.11;100.00;93086.75;5011962;28;20097;-79
2023/09/25 03:04:46;;;;;;;5.90;2.30;;;;;;;9.10;100.00;93101.66;5013049;28;20042;-79
2023/09/25 03:07:12;;;;;;;7.75;2.15;;;;;;;9.06;100.00;93097.22;5013636;28;20037;-79
2023/09/25 03:09:38;;;;;;;5.55;2.10;;;;;;;9.02;100.00;93106.59;5015264;28;20053;-80
2023/09/25 03:12:05;;;;;;;9.13;2.05;;;;;;;9.03;100.00;93116.00;5011257;28;20069;-79
2023/09/25 03:14:31;;;;;;;5.25;2.10;;;;;;;8.96;100.00;93106.59;5025716;28;20042;-79
2023/09/25 03:16:56;;;;;;;4.93;2.17;;;;;;;8.96;100.00;93111.03;5014632;28;20662;-79
2023/09/25 03:19:22;;;;;;;7.47;1.90;;;;;;;8.94;100.00;93121.75;5004640;28;20046;-80
2023/09/25 03:21:47;;;;;;;5.60;1.95;;;;;;;8.94;100.00;93118.38;4997309;28;20030;-80
2023/09/25 03:24:13;;;;;;;5.28;2.33;;;;;;;8.91;100.00;93109.19;4992890;28;20046;-80
2023/09/25 03:26:38;;;;;;;5.35;2.10;;;;;;;8.92;100.00;93110.00;5019217;28;20064;-79
2023/09/25 03:29:05;;;;;;;5.22;2.10;;;;;;;8.87;100.00;93108.16;5009001;28;20042;-79
2023/09/25 03:31:31;;;;;;;4.85;2.05;;;;;;;8.88;100.00;93107.13;5020831;28;20025;-80
2023/09/25 03:33:56;;;;;;;4.90;2.00;;;;;;;8.84;100.00;93110.50;5024040;28;20111;-79
2023/09/25 03:36:22;;;;;;;8.60;2.30;;;;;;;8.74;100.00;93103.47;5010802;28;20576;-80
2023/09/25 03:38:50;;;;;;;4.60;1.90;;;;;;;8.74;100.00;93108.69;5007655;28;20066;-80
2023/09/25 03:41:16;;;;;;;6.03;1.92;;;;;;;8.72;100.00;93105.53;5026713;28;20060;-80
2023/09/25 03:43:41;;;;;;;6.82;2.00;;;;;;;8.68;100.00;93107.09;5020888;28;20046;-79
2023/09/25 03:46:07;;;;;;;7.70;2.00;;;;;;;8.68;100.00;93122.75;5026441;28;20330;-77
2023/09/25 03:48:33;;;;;;;6.95;1.92;;;;;;;8.68;100.00;93109.69;5020990;28;20061;-80
2023/09/25 03:50:59;;;;;;;8.65;2.35;;;;;;;8.67;100.00;93111.53;5004730;28;20120;-79
2023/09/25 03:53:24;;;;;;;5.32;1.80;;;;;;;8.65;100.00;93116.22;5020061;28;20528;-80
2023/09/25 03:55:50;;;;;;;6.40;1.70;;;;;;;8.64;100.00;93119.88;5007625;28;20041;-79
2023/09/25 03:58:16;;;;;;;6.18;2.00;;;;;;;8.64;100.00;93119.09;5015775;28;20034;-80
2023/09/25 04:00:41;;;;;;;4.78;2.10;;;;;;;8.65;100.00;93120.66;5016711;28;20022;-79
2023/09/25 04:03:07;;;;;;;3.65;1.88;;;;;;;8.65;100.00;93120.66;5017725;28;20496;-79
2023/09/25 04:05:33;;;;;;;5.47;1.88;;;;;;;8.63;100.00;93125.34;5004510;28;20034;-80
2023/09/25 04:08:00;;;;;;;4.32;1.90;;;;;;;8.64;100.00;93124.31;5019836;28;20064;-80
2023/09/25 04:10:27;;;;;;;5.10;2.08;;;;;;;8.62;100.00;93121.16;5025429;28;20036;-79
2023/09/25 04:12:53;;;;;;;5.05;2.10;;;;;;;8.63;100.00;93122.75;5017916;28;20037;-79
2023/09/25 04:15:22;;;;;;;4.60;1.90;;;;;;;8.65;100.00;93124.06;5029087;28;20396;-80
2023/09/25 04:17:52;;;;;;;3.75;1.70;;;;;;;8.63;100.00;93126.13;5033193;28;20401;-80
2023/09/25 04:20:24;;;;;;;3.75;1.70;;;;;;;8.61;100.00;93124.84;5018712;28;20051;-79
2023/09/25 04:22:53;;;;;;;4.22;1.75;;;;;;;8.63;100.00;93135.81;5023173;28;20092;-79
2023/09/25 04:25:19;;;;;;;4.32;1.80;;;;;;;8.63;100.00;93139.19;5015757;28;20042;-78
2023/09/25 04:27:50;;;;;;;3.95;2.00;;;;;;;8.59;100.00;93132.13;5016688;28;20394;-80
2023/09/25 04:30:17;;;;;;;4.35;1.70;;;;;;;8.57;100.00;93139.44;5018967;28;20049;-80
2023/09/25 04:32:49;;;;;;;3.55;1.65;;;;;;;8.57;100.00;93144.66;5025087;28;20056;-80
2023/09/25 04:35:16;;;;;;;4.40;1.70;;;;;;;8.52;100.00;93140.19;5019893;28;20096;-79
2023/09/25 04:37:42;;;;;;;5.10;1.92;;;;;;;8.54;100.00;93148.56;5018345;28;20036;-79
2023/09/25 04:40:13;;;;;;;5.38;1.85;;;;;;;8.54;100.00;93154.56;5021433;28;20077;-80
2023/09/25 04:42:44;;;;;;;9.67;2.10;;;;;;;8.50;100.00;93147.50;5032074;28;20504;-80
2023/09/25 04:45:13;;;;;;;7.82;2.15;;;;;;;8.52;100.00;93156.63;5020976;28;20034;-80
2023/09/25 04:47:43;;;;;;;4.72;1.90;;;;;;;8.51;100.00;93162.09;5010794;28;20041;-79
2023/09/25 04:50:09;;;;;;;5.35;1.80;;;;;;;8.47;100.00;93156.63;5018472;28;20046;-80
2023/09/25 04:52:36;;;;;;;7.18;2.10;;;;;;;8.43;100.00;93167.84;5017501;28;20137;-81
2023/09/25 04:55:06;;;;;;;4.13;1.88;;;;;;;8.41;100.00;93162.09;5007736;28;20456;-80
2023/09/25 04:57:32;;;;;;;5.47;1.83;;;;;;;8.39;100.00;93162.31;5014893;28;20508;-81
2023/09/25 04:59:57;;;;;;;9.63;1.95;;;;;;;8.40;100.00;93169.13;5018487;28;20053;-81
2023/09/25 05:02:23;;;;;;;4.78;2.00;;;;;;;8.41;100.00;93173.28;5023059;28;20065;-80
2023/09/25 05:04:48;;;;;;;7.68;2.00;;;;;;;8.41;100.00;93177.75;5017038;28;20117;-81
2023/09/25 05:07:14;;;;;;;6.70;2.10;;;;;;;8.42;100.00;93182.72;5012324;28;20039;-79
2023/09/25 05:09:40;;;;;;;5.60;2.35;;;;;;;8.38;100.00;93184.22;5007287;28;20022;-79
2023/09/25 05:12:05;;;;;;;9.40;2.13;;;;;;;8.37;100.00;93187.06;5023110;28;20038;-80
2023/09/25 05:14:31;;;;;;;4.45;1.92;;;;;;;8.32;100.00;93182.63;5025239;28;20148;-80
2023/09/25 05:16:59;;;;;;;6.10;3.00;;;;;;;8.34;100.00;93185.75;5026549;28;20049;-80
2023/09/25 05:19:25;;;;;;;5.55;2.17;;;;;;;8.34;100.00;93183.16;5026643;28;20049;-82
2023/09/25 05:21:50;;;;;;;5.40;2.00;;;;;;;8.39;100.00;93175.34;5027013;28;20046;-81
2023/09/25 05:24:16;;;;;;;6.53;1.90;;;;;;;8.43;100.00;93183.50;5030794;28;20113;-80
2023/09/25 05:26:41;;;;;;;4.88;1.80;;;;;;;8.47;100.00;93187.16;5025768;28;20600;-80
2023/09/25 05:29:07;;;;;;;4.15;1.90;;;;;;;8.48;100.00;93192.09;5032642;28;20118;-79
2023/09/25 05:31:32;;;;;;;5.18;1.90;;;;;;;8.82;100.00;93186.47;5023083;28;20034;-79
2023/09/25 05:33:58;;;;;;;3.70;1.70;;;;;;;9.55;100.00;93196.75;5021479;28;20406;-79
2023/09/25 05:36:24;;;;;;;9.48;2.17;;;;;;;10.28;100.00;93200.81;5024106;28;20108;-79
2023/09/25 05:38:49;;;;;;;4.45;2.00;;;;;;;10.90;100.00;93195.34;5023988;28;20045;-79
2023/09/25 05:41:16;;;;;;;4.60;2.05;;;;;;;11.01;100.00;93189.81;5017438;28;20084;-78
2023/09/25 05:43:42;;;;;;;4.93;2.03;;;;;;;10.98;100.00;93190.34;5022878;28;20034;-79
2023/09/25 05:46:08;;;;;;;10.32;1.90;;;;;;;11.64;100.00;93190.94;5021758;28;20390;-81
2023/09/25 05:48:33;;;;;;;3.85;1.70;;;;;;;12.37;100.00;93184.00;5049003;28;20029;-80
2023/09/25 05:51:00;;;;;;;7.30;1.73;;;;;;;13.07;100.00;93184.16;5020637;28;20034;-81
2023/09/25 05:53:27;;;;;;;9.20;2.05;;;;;;;13.73;100.00;93194.78;5009597;28;20513;-81
2023/09/25 05:55:53;;;;;;;3.90;1.60;;;;;;;14.32;100.00;93188.00;5016142;28;20038;-80
2023/09/25 05:58:18;;;;;;;5.28;1.92;;;;;;;14.69;93.12;93178.34;5013010;28;20118;-81
2023/09/25 06:00:46;;;;;;;3.80;1.80;;;;;;;15.18;89.80;93179.44;5017273;28;20041;-80
2023/09/25 06:03:13;;;;;;;4.53;1.90;;;;;;;15.44;85.29;93186.78;5019771;28;20065;-83
2023/09/25 06:05:38;;;;;;;5.53;2.10;;;;;;;15.93;84.94;93190.41;5022400;28;20113;-80
2023/09/25 06:08:05;;;;;;;5.95;1.90;;;;;;;16.46;82.22;93183.53;5025925;28;20060;-81
2023/09/25 06:10:32;;;;;;;6.00;1.75;;;;;;;17.07;75.41;93186.38;5024208;28;20250;-80
2023/09/25 06:13:00;;;;;;;4.43;2.03;;;;;;;17.39;74.24;93187.78;5022854;28;20481;-81
2023/09/25 06:15:26;;;;;;;11.52;2.70;;;;;;;17.53;72.29;93182.34;5015339;28;20084;-81
2023/09/25 06:17:52;;;;;;;4.32;1.80;;;;;;;17.94;71.27;93183.72;5013154;28;20048;-80
2023/09/25 06:20:20;;;;;;;4.05;1.70;;;;;;;18.40;69.69;93187.50;5018996;28;20165;-80
2023/09/25 06:22:46;;;;;;;6.55;1.95;;;;;;;18.68;67.75;93193.16;5021865;28;20210;-78
2023/09/25 06:25:19;;;;;;;4.63;1.73;;;;;;;18.95;65.64;93185.88;5025809;28;20030;-81
2023/09/25 06:27:45;;;;;;;5.75;1.95;;;;;;;19.30;64.03;93181.16;5005407;28;20145;-81
2023/09/25 06:30:15;;;;;;;5.18;2.10;;;;;;;19.80;62.17;93190.16;5010978;28;20072;-81
2023/09/25 06:32:41;;;;;;;5.30;1.90;;;;;;;20.56;60.85;93191.59;5010439;28;20502;-80
2023/09/25 06:35:07;;;;;;;9.40;2.67;;;;;;;21.07;55.38;93191.25;4996926;28;20085;-81
2023/09/25 06:37:34;;;;;;;6.40;2.08;;;;;;;21.00;59.97;93194.47;5006578;28;20065;-81
2023/09/25 06:39:59;;;;;;;6.22;1.85;;;;;;;21.02;58.52;93185.38;5014674;28;20038;-80
2023/09/25 06:42:25;;;;;;;4.35;2.03;;;;;;;21.40;57.11;93196.44;5021872;28;20045;-81
2023/09/25 06:44:51;;;;;;;5.57;2.20;;;;;;;21.59;53.78;93187.06;5015097;28;20045;-81
2023/09/25 06:47:16;;;;;;;5.43;2.00;;;;;;;21.77;53.09;93187.56;5013990;28;20331;-81
2023/09/25 06:49:42;;;;;;;5.68;1.80;;;;;;;22.17;51.73;93192.84;5014056;28;20037;-81
2023/09/25 06:52:07;;;;;;;5.35;2.20;;;;;;;22.68;50.94;93188.81;5014736;28;20504;-81
2023/09/25 06:54:33;;;;;;;4.63;2.13;;;;;;;22.90;51.01;93177.53;4998463;28;20030;-81
2023/09/25 06:56:59;;;;;;;4.72;2.10;;;;;;;23.39;49.60;93185.09;5017254;28;20037;-80
2023/09/25 06:59:26;;;;;;;5.88;2.08;;;;;;;23.70;48.46;93178.09;5009830;28;20038;-81
2023/09/25 07:01:51;;;;;;;4.65;2.00;;;;;;;24.03;45.17;93176.88;5016109;28;20049;-82
2023/09/25 07:04:17;;;;;;;4.95;1.83;;;;;;;23.86;45.08;93178.06;5020239;28;20030;-82
2023/09/25 07:06:42;;;;;;;4.57;1.92;;;;;;;23.89;44.42;93183.50;5021899;28;20034;-83
2023/09/25 07:09:09;;;;;;;4.68;2.17;;;;;;;24.34;44.53;93185.81;5025142;28;20026;-81
2023/09/25 07:11:36;;;;;;;6.57;2.75;;;;;;;23.34;47.62;93185.38;5029981;28;20037;-82
2023/09/25 07:14:01;;;;;;;7.75;2.40;;;;;;;21.75;55.35;93179.94;5019574;28;20030;-82
2023/09/25 07:16:27;;;;;;;5.90;2.30;;;;;;;21.11;56.84;93173.50;5024457;28;20144;-81
2023/09/25 07:18:53;;;;;;;7.05;2.15;;;;;;;21.48;60.88;93159.38;5027742;28;20041;-82
2023/09/25 07:21:19;;;;;;;5.00;2.03;;;;;;;21.10;57.98;93173.84;5025329;28;20053;-82
2023/09/25 07:23:46;;;;;;;4.32;2.00;;;;;;;20.69;60.66;93165.78;5008673;28;20038;-83
2023/09/25 07:26:15;;;;;;;10.05;2.20;;;;;;;20.04;58.22;93170.06;5023721;28;20045;-81
2023/09/25 07:28:41;;;;;;;5.10;1.90;;;;;;;19.35;62.73;93172.22;5019588;28;20038;-80
2023/09/25 07:31:07;;;;;;;5.68;2.55;;;;;;;18.81;68.90;93172.09;5015049;28;20037;-80
2023/09/25 07:33:34;;;;;;;7.57;2.10;;;;;;;19.43;72.40;93167.91;5029423;28;20042;-79
2023/09/25 07:36:00;;;;;;;7.72;2.20;;;;;;;19.51;66.20;93178.47;5026165;28;20061;-80
2023/09/25 07:38:25;;;;;;;7.55;2.22;;;;;;;19.95;68.46;93170.19;5018989;28;20038;-82
2023/09/25 07:40:51;;;;;;;7.18;2.40;;;;;;;19.60;68.79;93167.78;5026781;28;20317;-79
2023/09/25 07:43:19;;;;;;;6.28;2.50;;;;;;;19.00;75.63;93174.31;5029695;28;20053;-79
2023/09/25 07:45:50;;;;;;;6.20;2.45;;;;;;;17.89;78.94;93168.78;5032600;28;20034;-80
2023/09/25 07:48:16;;;;;;;9.13;2.47;;;;;;;17.70;83.32;93170.97;5027476;28;20049;-78
2023/09/25 07:50:45;;;;;;;6.28;2.42;;;;;;;17.53;86.31;93176.28;5033800;28;20034;-79
2023/09/25 07:53:12;;;;;;;10.00;2.78;;;;;;;17.68;87.37;93171.28;5026238;28;20053;-79
2023/09/25 07:55:38;;;;;;;5.95;2.38;;;;;;;18.01;86.02;93177.94;5006148;28;20026;-83
2023/09/25 07:58:04;;;;;;;6.85;2.53;;;;;;;18.04;84.20;93175.47;5002554;28;20445;-81
2023/09/25 08:00:40;;;;;;;8.07;2.55;;;;;;;18.16;84.32;93185.41;5021059;28;20412;-80
2023/09/25 08:03:09;;;;;;;6.47;2.47;;;;;;;17.72;82.61;93183.88;5044194;28;20064;-81
2023/09/25 08:05:36;;;;;;;6.75;2.47;;;;;;;17.69;82.95;93183.41;5019290;28;20022;-79
2023/09/25 08:08:02;;;;;;;5.70;2.50;;;;;;;17.93;81.44;93189.34;4996978;28;20034;-80
2023/09/25 08:10:28;;;;;;;5.78;2.25;;;;;;;17.59;85.06;93189.03;5014034;28;20045;-79
2023/09/25 08:12:54;;;;;;;6.03;2.35;;;;;;;17.38;87.18;93182.81;5016383;28;20049;-80
2023/09/25 08:15:20;;;;;;;5.88;2.42;;;;;;;17.57;87.91;93185.94;5009886;28;20513;-79
2023/09/25 08:17:47;;;;;;;7.57;2.00;;;;;;;17.45;88.00;93183.09;5002818;28;20034;-79
2023/09/25 08:20:22;;;;;;;5.93;1.95;;;;;;;17.65;85.97;93187.00;5019881;28;20057;-79
2023/09/25 08:22:52;;;;;;;5.55;2.30;;;;;;;18.14;83.96;93192.88;5027487;28;20042;-79
2023/09/25 08:25:18;;;;;;;8.10;2.10;;;;;;;18.02;82.62;93182.94;5018792;28;20049;-79
2023/09/25 08:27:44;;;;;;;5.97;2.15;;;;;;;18.27;87.70;93186.63;5020441;28;20032;-79
2023/09/25 08:30:13;;;;;;;4.50;2.20;;;;;;;18.43;83.70;93180.78;5020349;28;20097;-80
2023/09/25 08:32:39;;;;;;;7.88;2.72;;;;;;;17.82;83.53;93188.91;5020565;28;20029;-79
2023/09/25 08:35:05;;;;;;;6.72;2.50;;;;;;;17.55;87.61;93180.16;5021071;28;20061;-81
2023/09/25 08:37:31;;;;;;;5.70;2.40;;;;;;;17.79;87.99;93184.22;5022443;28;20037;-79
2023/09/25 08:39:57;;;;;;;5.72;2.25;;;;;;;17.62;90.05;93190.28;5020514;28;20447;-81
2023/09/25 08:42:25;;;;;;;4.32;2.25;;;;;;;17.86;87.60;93195.13;5019603;28;20046;-80
2023/09/25 08:44:54;;;;;;;7.18;2.22;;;;;;;17.83;88.89;93191.25;5026301;28;20030;-80
2023/09/25 08:47:22;;;;;;;4.25;2.03;;;;;;;17.47;90.32;93192.31;5017205;28;20031;-80
2023/09/25 08:49:52;;;;;;;6.68;2.03;;;;;;;17.15;91.91;93196.16;5017548;28;20041;-80
2023/09/25 08:52:22;;;;;;;7.10;2.20;;;;;;;16.71;95.55;93195.28;4997316;28;20072;-79
2023/09/25 08:54:51;;;;;;;5.40;2.20;;;;;;;16.71;95.44;93202.44;5005597;28;20552;-79
2023/09/25 08:57:18;;;;;;;5.13;2.13;;;;;;;16.67;96.01;93186.41;5020556;28;20084;-81
2023/09/25 08:59:46;;;;;;;6.03;2.67;;;;;;;17.12;95.68;93198.66;4994434;28;20086;-79
2023/09/25 09:02:13;;;;;;;7.43;2.72;;;;;;;17.54;92.75;93188.41;5016550;28;20144;-78
2023/09/25 09:04:39;;;;;;;6.00;2.30;;;;;;;17.76;90.63;93188.25;5034261;28;20282;-78
2023/09/25 09:07:08;;;;;;;5.25;2.33;;;;;;;18.07;89.22;93180.13;5020103;28;20026;-77
2023/09/25 09:09:34;;;;;;;9.05;2.30;;;;;;;18.29;87.67;93181.78;5016884;28;20123;-79
2023/09/25 09:12:00;;;;;;;9.20;2.22;;;;;;;18.36;85.30;93183.94;5014539;28;20562;-77
2023/09/25 09:14:43;;;;;;;4.85;2.20;;;;;;;18.33;86.71;93187.22;5019746;28;20075;-78
2023/09/25 09:17:10;;;;;;;5.07;2.10;;;;;;;18.26;86.25;93187.72;5015413;28;20044;-78
2023/09/25 09:19:52;;;;;;;20.35;2.90;;;;;;;17.91;84.23;93183.59;5009292;28;20470;-78
2023/09/25 09:22:19;;;;;;;8.70;2.33;;;;;;;17.92;85.43;93183.25;5010805;28;20069;-80
2023/09/25 09:24:47;;;;;;;5.63;2.28;;;;;;;17.80;85.55;93185.75;5019413;28;20386;-79
2023/09/25 09:27:14;;;;;;;6.72;2.50;;;;;;;17.45;86.97;93173.31;5020387;28;20113;-79
2023/09/25 09:29:45;;;;;;;4.82;2.20;;;;;;;17.47;89.70;93173.78;5002863;28;20030;-79
2023/09/25 09:32:11;;;;;;;6.63;2.45;;;;;;;17.72;90.76;93168.00;5022784;28;20029;-79
2023/09/25 09:34:41;;;;;;;8.65;2.38;;;;;;;18.07;92.44;93169.53;5031969;28;20373;-79
2023/09/25 09:37:10;;;;;;;7.45;2.40;;;;;;;18.15;86.53;93175.91;5018773;28;20117;-79
2023/09/25 09:39:37;;;;;;;5.25;2.30;;;;;;;18.27;88.83;93173.38;5025949;28;20033;-80
2023/09/25 09:42:05;;;;;;;5.88;2.53;;;;;;;18.43;86.38;93178.91;5016625;28;20045;-80
2023/09/25 09:44:35;;;;;;;6.60;2.33;;;;;;;18.30;89.67;93161.34;5024128;28;20033;-79
2023/09/25 09:47:04;;;;;;;7.10;2.63;;;;;;;18.20;86.85;93172.31;5017702;28;20480;-78
2023/09/25 09:49:32;;;;;;;5.90;2.20;;;;;;;17.95;88.55;93173.94;5017382;28;20072;-78
2023/09/25 09:52:02;;;;;;;5.50;2.55;;;;;;;17.50;92.82;93175.03;5013643;28;20041;-79
2023/09/25 09:54:42;;;;;;;5.55;2.40;;;;;;;17.45;92.76;93181.25;4998104;28;20438;-77
2023/09/25 09:57:08;;;;;;;6.75;2.42;;;;;;;17.62;89.31;93174.41;5008725;28;20048;-77
2023/09/25 09:59:34;;;;;;;7.43;2.50;;;;;;;17.88;88.15;93171.75;5027900;28;20426;-79
2023/09/25 10:02:02;;;;;;;5.72;2.42;;;;;;;18.01;87.19;93164.69;5018622;28;20137;-78
2023/09/25 10:04:29;;;;;;;4.97;2.33;;;;;;;17.96;86.70;93168.31;5018241;28;20056;-78
2023/09/25 10:07:09;;;;;;;7.07;2.70;;;;;;;18.12;88.19;93167.81;5017258;28;20033;-79
2023/09/25 10:09:35;;;;;;;5.47;2.22;;;;;;;18.40;90.81;93165.53;5017802;28;20497;-78
2023/09/25 10:12:04;;;;;;;7.45;2.25;;;;;;;18.72;82.52;93156.94;5017004;28;20091;-78
2023/09/25 10:14:40;;;;;;;4.78;1.88;;;;;;;19.26;79.82;93158.22;5018274;28;20025;-79
2023/09/25 10:17:06;;;;;;;5.47;2.28;;;;;;;19.45;78.23;93157.75;5010226;28;20033;-79
2023/09/25 10:19:47;;;;;;;5.18;2.38;;;;;;;19.14;81.25;93162.38;5020123;28;20405;-78
2023/09/25 10:22:20;;;;;;;5.50;2.40;;;;;;;19.34;79.96;93162.69;5005970;28;20081;-80
2023/09/25 10:25:11;;;;;;;4.45;2.13;;;;;;;19.15;78.97;93160.47;5011962;28;20117;-78
2023/09/25 10:27:43;;;;;;;5.38;2.05;;;;;;;19.01;76.67;93150.13;4991221;28;20054;-81
2023/09/25 10:30:13;;;;;;;5.72;2.50;;;;;;;18.95;80.41;93161.22;5017542;28;20167;-79
2023/09/25 10:32:40;;;;;;;6.50;2.40;;;;;;;18.77;79.50;93169.28;5001269;28;20052;-81
2023/09/25 10:35:39;;;;;;;4.90;2.13;;;;;;;18.46;83.45;93158.94;5008835;28;20442;-80
2023/09/25 10:38:12;;;;;;;4.80;2.00;;;;;;;18.76;81.07;93166.94;5014685;28;20387;-80
2023/09/25 10:40:42;;;;;;;5.70;2.47;;;;;;;18.96;78.21;93152.97;5017397;28;20183;-79
2023/09/25 10:43:08;;;;;;;4.82;2.13;;;;;;;18.73;76.60;93157.72;5023654;28;20702;-80
2023/09/25 10:45:35;;;;;;;8.43;2.17;;;;;;;19.12;74.70;93153.19;5024134;28;20071;-80
2023/09/25 10:48:02;;;;;;;5.00;2.20;;;;;;;19.32;69.00;93157.72;5020460;28;20042;-79
2023/09/25 10:50:28;;;;;;;6.28;2.28;;;;;;;19.32;76.37;93155.06;5035454;28;20061;-80
2023/09/25 10:52:54;;;;;;;5.65;2.60;;;;;;;19.08;78.19;93155.69;5021472;28;20333;-79
2023/09/25 10:55:20;;;;;;;5.97;2.50;;;;;;;19.17;79.28;93150.31;5024224;28;20320;-80
2023/09/25 10:57:46;;;;;;;6.30;2.40;;;;;;;18.99;78.81;93146.25;5022107;28;20547;-80
2023/09/25 11:00:17;;;;;;;7.47;2.60;;;;;;;18.69;79.81;93149.66;5029842;28;20424;-80
2023/09/25 11:02:42;;;;;;;7.50;3.05;;;;;;;18.65;82.00;93153.25;5017636;28;20038;-79
2023/09/25 11:05:13;;;;;;;7.35;2.67;;;;;;;18.62;80.22;93151.22;5032034;28;20045;-79
2023/09/25 11:07:43;;;;;;;7.95;2.40;;;;;;;18.75;77.53;93147.56;5034637;28;20104;-79
2023/09/25 11:10:13;;;;;;;7.57;2.38;;;;;;;18.88;80.13;93151.91;5022442;28;20117;-79
2023/09/25 11:12:40;;;;;;;6.15;2.15;;;;;;;18.93;80.48;93143.75;5018415;28;20038;-78
2023/09/25 11:15:17;;;;;;;7.20;2.22;;;;;;;18.73;76.29;93158.53;5034142;28;20029;-80
2023/09/25 11:17:45;;;;;;;6.13;2.35;;;;;;;19.02;78.83;93150.88;5033459;28;20034;-80
2023/09/25 11:20:13;;;;;;;6.43;2.33;;;;;;;19.25;77.48;93152.16;5027295;28;20052;-79
2023/09/25 11:22:49;;;;;;;6.78;2.70;;;;;;;19.25;75.45;93149.50;5024475;28;20048;-79
2023/09/25 11:25:16;;;;;;;10.10;2.45;;;;;;;19.07;74.35;93156.78;5058613;28;20042;-79
2023/09/25 11:27:55;;;;;;;7.75;2.47;;;;;;;19.10;73.39;93150.06;5033852;28;20037;-80
2023/09/25 11:30:26;;;;;;;5.03;2.35;;;;;;;19.28;73.64;93150.72;4998998;28;20318;-79
2023/09/25 11:32:55;;;;;;;9.68;2.80;;;;;;;19.45;76.29;93144.47;5026014;28;20100;-80